sensor_id;sensor_type;location;lat;lon;timestamp;pressure;altitude;pressure_sealevel;temperature;humidity
50790;BME280;37287;47.554;7.844;2023-06-22T00:01:45;97782.81;;;19.11;100.00
50790;BME280;37287;47.554;7.844;2023-06-22T00:04:12;97791.78;;;19.11;100.00
50790;BME280;37287;47.554;7.844;2023-06-22T00:06:39;97784.34;;;19.12;100.00
50790;BME280;37287;47.554;7.844;2023-06-22T00:09:06;97787.41;;;19.14;100.00
50790;BME280;37287;47.554;7.844;2023-06-22T00:11:35;97793.34;;;19.12;100.00
50790;BME280;37287;47.554;7.844;2023-06-22T00:14:06;97791.91;;;19.07;100.00
50790;BME280;37287;47.554;7.844;2023-06-22T00:16:34;97793.88;;;19.07;100.00
50790;BME280;37287;47.554;7.844;2023-06-22T00:19:07;97800.16;;;19.07;100.00
50790;BME280;37287;47.554;7.844;2023-06-22T00:21:34;97802.22;;;19.03;100.00
50790;BME280;37287;47.554;7.844;2023-06-22T00:24:00;97813.19;;;19.03;100.00
50790;BME280;37287;47.554;7.844;2023-06-22T00:26:27;97829.66;;;19.03;100.00
50790;BME280;37287;47.554;7.844;2023-06-22T00:28:53;97818.75;;;19.00;100.00
50790;BME280;37287;47.554;7.844;2023-06-22T00:31:20;97816.56;;;18.95;100.00
50790;BME280;37287;47.554;7.844;2023-06-22T00:33:48;97821.81;;;18.89;100.00
50790;BME280;37287;47.554;7.844;2023-06-22T00:36:17;97818.63;;;18.90;100.00
50790;BME280;37287;47.554;7.844;2023-06-22T00:38:44;97803.41;;;18.86;100.00
50790;BME280;37287;47.554;7.844;2023-06-22T00:41:17;97808.09;;;18.72;100.00
50790;BME280;37287;47.554;7.844;2023-06-22T00:43:45;97801.78;;;18.59;100.00
50790;BME280;37287;47.554;7.844;2023-06-22T00:46:12;97800.63;;;18.44;100.00
50790;BME280;37287;47.554;7.844;2023-06-22T00:48:42;97797.38;;;18.32;100.00
50790;BME280;37287;47.554;7.844;2023-06-22T00:51:10;97803.00;;;18.25;100.00
50790;BME280;37287;47.554;7.844;2023-06-22T00:53:37;97808.84;;;18.27;100.00
50790;BME280;37287;47.554;7.844;2023-06-22T00:56:04;97798.75;;;18.24;100.00
50790;BME280;37287;47.554;7.844;2023-06-22T00:58:32;97799.44;;;18.28;100.00
50790;BME280;37287;47.554;7.844;2023-06-22T01:00:58;97804.22;;;18.24;100.00
50790;BME280;37287;47.554;7.844;2023-06-22T01:03:28;97796.16;;;18.33;100.00
50790;BME280;37287;47.554;7.844;2023-06-22T01:05:59;97804.72;;;18.35;100.00
50790;BME280;37287;47.554;7.844;2023-06-22T01:08:32;97801.63;;;18.33;100.00
50790;BME280;37287;47.554;7.844;2023-06-22T01:11:12;97799.25;;;18.35;100.00
50790;BME280;37287;47.554;7.844;2023-06-22T01:13:57;97804.19;;;18.41;100.00
50790;BME280;37287;47.554;7.844;2023-06-22T01:16:29;97803.44;;;18.40;100.00
50790;BME280;37287;47.554;7.844;2023-06-22T01:18:59;97805.41;;;18.39;100.00
50790;BME280;37287;47.554;7.844;2023-06-22T01:21:28;97796.75;;;18.41;100.00
50790;BME280;37287;47.554;7.844;2023-06-22T01:29:21;97786.56;;;18.42;100.00
50790;BME280;37287;47.554;7.844;2023-06-22T01:31:49;97790.06;;;18.42;100.00
50790;BME280;37287;47.554;7.844;2023-06-22T01:34:17;97787.31;;;18.42;100.00
50790;BME280;37287;47.554;7.844;2023-06-22T01:36:51;97790.84;;;18.43;100.00
50790;BME280;37287;47.554;7.844;2023-06-22T01:39:19;97792.78;;;18.42;100.00
50790;BME280;37287;47.554;7.844;2023-06-22T01:41:49;97797.53;;;18.42;100.00
50790;BME280;37287;47.554;7.844;2023-06-22T01:44:23;97795.66;;;18.38;100.00
50790;BME280;37287;47.554;7.844;2023-06-22T01:46:53;97803.34;;;18.27;100.00
50790;BME280;37287;47.554;7.844;2023-06-22T01:49:20;97799.25;;;18.19;100.00
50790;BME280;37287;47.554;7.844;2023-06-22T01:51:49;97801.13;;;18.22;100.00
50790;BME280;37287;47.554;7.844;2023-06-22T01:54:16;97796.69;;;18.28;100.00
50790;BME280;37287;47.554;7.844;2023-06-22T01:56:43;97791.53;;;18.30;100.00
50790;BME280;37287;47.554;7.844;2023-06-22T01:59:19;97794.78;;;18.25;100.00
50790;BME280;37287;47.554;7.844;2023-06-22T02:02:04;97796.19;;;18.17;100.00
50790;BME280;37287;47.554;7.844;2023-06-22T02:04:44;97798.91;;;18.17;100.00
50790;BME280;37287;47.554;7.844;2023-06-22T02:07:15;97796.19;;;18.17;100.00
50790;BME280;37287;47.554;7.844;2023-06-22T02:09:46;97797.78;;;17.98;100.00
50790;BME280;37287;47.554;7.844;2023-06-22T02:12:22;97801.44;;;17.91;100.00
50790;BME280;37287;47.554;7.844;2023-06-22T02:14:51;97801.25;;;17.82;100.00
50790;BME280;37287;47.554;7.844;2023-06-22T02:17:18;97786.69;;;17.68;100.00
50790;BME280;37287;47.554;7.844;2023-06-22T02:19:45;97783.25;;;17.64;100.00
50790;BME280;37287;47.554;7.844;2023-06-22T02:22:16;97779.56;;;17.55;100.00
50790;BME280;37287;47.554;7.844;2023-06-22T02:24:42;97774.84;;;17.55;100.00
50790;BME280;37287;47.554;7.844;2023-06-22T02:27:09;97770.31;;;17.48;100.00
50790;BME280;37287;47.554;7.844;2023-06-22T02:29:37;97766.97;;;17.41;100.00
50790;BME280;37287;47.554;7.844;2023-06-22T02:32:03;97767.88;;;17.34;100.00
50790;BME280;37287;47.554;7.844;2023-06-22T02:34:31;97749.59;;;17.31;100.00
50790;BME280;37287;47.554;7.844;2023-06-22T02:37:03;97752.22;;;17.34;100.00
50790;BME280;37287;47.554;7.844;2023-06-22T02:39:29;97758.81;;;17.37;100.00
50790;BME280;37287;47.554;7.844;2023-06-22T02:41:56;97760.28;;;17.42;100.00
50790;BME280;37287;47.554;7.844;2023-06-22T02:44:23;97764.06;;;17.48;100.00
50790;BME280;37287;47.554;7.844;2023-06-22T02:46:52;97764.78;;;17.52;100.00
50790;BME280;37287;47.554;7.844;2023-06-22T02:49:20;97761.88;;;17.59;100.00
50790;BME280;37287;47.554;7.844;2023-06-22T02:51:49;97756.72;;;17.61;100.00
50790;BME280;37287;47.554;7.844;2023-06-22T02:54:16;97749.63;;;17.64;100.00
50790;BME280;37287;47.554;7.844;2023-06-22T02:56:43;97750.22;;;17.55;100.00
50790;BME280;37287;47.554;7.844;2023-06-22T02:59:14;97748.50;;;17.45;100.00
50790;BME280;37287;47.554;7.844;2023-06-22T03:01:41;97748.94;;;17.43;100.00
50790;BME280;37287;47.554;7.844;2023-06-22T03:04:08;97758.81;;;17.37;100.00
50790;BME280;37287;47.554;7.844;2023-06-22T03:06:36;97757.69;;;17.34;100.00
50790;BME280;37287;47.554;7.844;2023-06-22T03:09:04;97758.50;;;17.35;100.00
50790;BME280;37287;47.554;7.844;2023-06-22T03:11:33;97763.25;;;17.31;100.00
50790;BME280;37287;47.554;7.844;2023-06-22T03:14:02;97754.34;;;17.27;100.00
50790;BME280;37287;47.554;7.844;2023-06-22T03:16:29;97743.41;;;17.27;100.00
50790;BME280;37287;47.554;7.844;2023-06-22T03:18:55;97756.25;;;17.30;100.00
50790;BME280;37287;47.554;7.844;2023-06-22T03:21:22;97744.44;;;17.33;100.00
50790;BME280;37287;47.554;7.844;2023-06-22T03:23:49;97743.91;;;17.22;100.00
50790;BME280;37287;47.554;7.844;2023-06-22T03:26:19;97733.13;;;17.14;100.00
50790;BME280;37287;47.554;7.844;2023-06-22T03:28:52;97729.94;;;17.16;100.00
50790;BME280;37287;47.554;7.844;2023-06-22T03:31:21;97726.94;;;17.10;100.00
50790;BME280;37287;47.554;7.844;2023-06-22T03:33:49;97726.53;;;17.12;100.00
50790;BME280;37287;47.554;7.844;2023-06-22T03:36:17;97716.38;;;17.12;100.00
50790;BME280;37287;47.554;7.844;2023-06-22T03:38:50;97718.31;;;17.12;100.00
50790;BME280;37287;47.554;7.844;2023-06-22T03:41:17;97729.25;;;17.12;100.00
50790;BME280;37287;47.554;7.844;2023-06-22T03:43:43;97727.56;;;17.18;100.00
50790;BME280;37287;47.554;7.844;2023-06-22T03:46:12;97727.16;;;17.19;100.00
50790;BME280;37287;47.554;7.844;2023-06-22T03:48:39;97736.38;;;17.26;100.00
50790;BME280;37287;47.554;7.844;2023-06-22T03:51:05;97731.69;;;17.26;100.00
50790;BME280;37287;47.554;7.844;2023-06-22T03:53:34;97736.38;;;17.26;100.00
50790;BME280;37287;47.554;7.844;2023-06-22T03:56:01;97736.16;;;17.36;100.00
50790;BME280;37287;47.554;7.844;2023-06-22T03:58:28;97740.78;;;17.40;100.00
50790;BME280;37287;47.554;7.844;2023-06-22T04:00:59;97728.13;;;17.46;100.00
50790;BME280;37287;47.554;7.844;2023-06-22T04:03:26;97727.31;;;17.49;100.00
50790;BME280;37287;47.554;7.844;2023-06-22T04:05:55;97733.81;;;17.55;100.00
50790;BME280;37287;47.554;7.844;2023-06-22T04:08:26;97744.25;;;17.60;100.00
50790;BME280;37287;47.554;7.844;2023-06-22T04:10:53;97741.53;;;17.60;100.00
50790;BME280;37287;47.554;7.844;2023-06-22T04:13:21;97739.72;;;17.70;100.00
50790;BME280;37287;47.554;7.844;2023-06-22T04:15:57;97739.47;;;17.81;100.00
50790;BME280;37287;47.554;7.844;2023-06-22T04:18:24;97736.13;;;17.90;100.00
50790;BME280;37287;47.554;7.844;2023-06-22T04:20:51;97730.16;;;17.95;100.00
50790;BME280;37287;47.554;7.844;2023-06-22T04:23:17;97740.53;;;18.03;100.00
50790;BME280;37287;47.554;7.844;2023-06-22T04:25:44;97741.63;;;18.06;100.00
50790;BME280;37287;47.554;7.844;2023-06-22T04:28:11;97739.47;;;18.14;100.00
50790;BME280;37287;47.554;7.844;2023-06-22T04:30:39;97740.34;;;18.27;100.00
50790;BME280;37287;47.554;7.844;2023-06-22T04:33:14;97732.09;;;18.44;100.00
50790;BME280;37287;47.554;7.844;2023-06-22T04:35:41;97747.28;;;18.61;100.00
50790;BME280;37287;47.554;7.844;2023-06-22T04:38:08;97749.88;;;18.81;100.00
50790;BME280;37287;47.554;7.844;2023-06-22T04:40:34;97745.06;;;18.85;100.00
50790;BME280;37287;47.554;7.844;2023-06-22T04:43:02;97746.66;;;18.99;100.00
50790;BME280;37287;47.554;7.844;2023-06-22T04:45:28;97742.09;;;19.22;100.00
50790;BME280;37287;47.554;7.844;2023-06-22T04:47:58;97749.03;;;19.39;100.00
50790;BME280;37287;47.554;7.844;2023-06-22T04:50:29;97748.06;;;19.59;100.00
50790;BME280;37287;47.554;7.844;2023-06-22T04:52:56;97727.84;;;19.79;100.00
50790;BME280;37287;47.554;7.844;2023-06-22T04:55:23;97741.25;;;20.02;100.00
50790;BME280;37287;47.554;7.844;2023-06-22T04:57:52;97737.81;;;20.11;100.00
50790;BME280;37287;47.554;7.844;2023-06-22T05:00:20;97730.03;;;20.32;100.00
50790;BME280;37287;47.554;7.844;2023-06-22T05:02:49;97726.25;;;20.51;100.00
50790;BME280;37287;47.554;7.844;2023-06-22T05:05:44;97715.31;;;20.60;100.00
50790;BME280;37287;47.554;7.844;2023-06-22T05:08:15;97711.59;;;20.67;100.00
50790;BME280;37287;47.554;7.844;2023-06-22T05:10:42;97713.03;;;20.59;100.00
50790;BME280;37287;47.554;7.844;2023-06-22T05:13:28;97723.72;;;20.79;100.00
50790;BME280;37287;47.554;7.844;2023-06-22T05:15:57;97726.16;;;20.99;100.00
50790;BME280;37287;47.554;7.844;2023-06-22T05:18:30;97706.41;;;21.23;100.00
50790;BME280;37287;47.554;7.844;2023-06-22T05:21:00;97712.94;;;21.16;100.00
50790;BME280;37287;47.554;7.844;2023-06-22T05:23:27;97719.03;;;21.42;100.00
50790;BME280;37287;47.554;7.844;2023-06-22T05:25:54;97718.28;;;21.83;100.00
50790;BME280;37287;47.554;7.844;2023-06-22T05:28:21;97718.03;;;22.18;100.00
50790;BME280;37287;47.554;7.844;2023-06-22T05:30:51;97718.38;;;22.47;100.00
50790;BME280;37287;47.554;7.844;2023-06-22T05:33:19;97711.16;;;22.41;100.00
50790;BME280;37287;47.554;7.844;2023-06-22T05:35:48;97719.28;;;22.35;100.00
50790;BME280;37287;47.554;7.844;2023-06-22T05:38:15;97717.75;;;22.62;100.00
50790;BME280;37287;47.554;7.844;2023-06-22T05:40:41;97713.44;;;22.98;100.00
50790;BME280;37287;47.554;7.844;2023-06-22T05:43:08;97716.44;;;23.28;100.00
50790;BME280;37287;47.554;7.844;2023-06-22T05:45:35;97719.53;;;23.21;100.00
50790;BME280;37287;47.554;7.844;2023-06-22T05:48:01;97723.31;;;23.32;100.00
50790;BME280;37287;47.554;7.844;2023-06-22T05:50:28;97718.75;;;23.20;100.00
50790;BME280;37287;47.554;7.844;2023-06-22T05:52:57;97717.38;;;23.25;100.00
50790;BME280;37287;47.554;7.844;2023-06-22T05:55:24;97717.00;;;23.41;100.00
50790;BME280;37287;47.554;7.844;2023-06-22T05:57:50;97715.78;;;23.42;100.00
50790;BME280;37287;47.554;7.844;2023-06-22T06:00:17;97718.53;;;23.42;100.00
50790;BME280;37287;47.554;7.844;2023-06-22T06:02:46;97707.81;;;23.35;100.00
50790;BME280;37287;47.554;7.844;2023-06-22T06:05:19;97700.13;;;23.39;100.00
50790;BME280;37287;47.554;7.844;2023-06-22T06:07:46;97694.53;;;23.82;100.00
50790;BME280;37287;47.554;7.844;2023-06-22T06:10:13;97687.19;;;23.88;100.00
50790;BME280;37287;47.554;7.844;2023-06-22T06:12:39;97680.94;;;23.35;100.00
50790;BME280;37287;47.554;7.844;2023-06-22T06:15:07;97677.47;;;23.26;100.00
50790;BME280;37287;47.554;7.844;2023-06-22T06:17:45;97675.97;;;23.15;100.00
50790;BME280;37287;47.554;7.844;2023-06-22T06:20:23;97669.25;;;23.50;100.00
50790;BME280;37287;47.554;7.844;2023-06-22T06:22:50;97684.59;;;23.75;100.00
50790;BME280;37287;47.554;7.844;2023-06-22T06:25:17;97698.69;;;24.11;100.00
50790;BME280;37287;47.554;7.844;2023-06-22T06:27:49;97712.50;;;24.35;100.00
50790;BME280;37287;47.554;7.844;2023-06-22T06:30:17;97717.09;;;24.77;100.00
50790;BME280;37287;47.554;7.844;2023-06-22T06:32:45;97746.22;;;24.48;100.00
50790;BME280;37287;47.554;7.844;2023-06-22T06:35:14;97759.19;;;23.94;100.00
50790;BME280;37287;47.554;7.844;2023-06-22T06:37:45;97787.03;;;23.20;100.00
50790;BME280;37287;47.554;7.844;2023-06-22T06:40:14;97815.41;;;22.55;100.00
50790;BME280;37287;47.554;7.844;2023-06-22T06:42:48;97847.75;;;22.05;100.00
50790;BME280;37287;47.554;7.844;2023-06-22T06:45:17;97860.63;;;21.76;100.00
50790;BME280;37287;47.554;7.844;2023-06-22T06:47:43;97886.72;;;21.85;100.00
50790;BME280;37287;47.554;7.844;2023-06-22T06:50:14;97901.31;;;21.72;100.00
50790;BME280;37287;47.554;7.844;2023-06-22T06:52:41;97912.53;;;21.78;100.00
50790;BME280;37287;47.554;7.844;2023-06-22T06:55:08;97922.53;;;21.62;100.00
50790;BME280;37287;47.554;7.844;2023-06-22T06:57:40;97919.78;;;21.62;100.00
50790;BME280;37287;47.554;7.844;2023-06-22T07:00:10;97899.28;;;21.63;100.00
50790;BME280;37287;47.554;7.844;2023-06-22T07:02:40;97881.59;;;21.74;100.00
50790;BME280;37287;47.554;7.844;2023-06-22T07:05:14;97890.31;;;21.72;100.00
50790;BME280;37287;47.554;7.844;2023-06-22T07:07:40;97890.34;;;21.81;100.00
50790;BME280;37287;47.554;7.844;2023-06-22T07:10:08;97905.94;;;22.07;100.00
50790;BME280;37287;47.554;7.844;2023-06-22T07:12:37;97903.41;;;22.22;100.00
50790;BME280;37287;47.554;7.844;2023-06-22T07:15:05;97892.34;;;22.53;100.00
50790;BME280;37287;47.554;7.844;2023-06-22T07:17:34;97870.47;;;22.77;100.00
50790;BME280;37287;47.554;7.844;2023-06-22T07:20:08;97852.22;;;22.98;100.00
50790;BME280;37287;47.554;7.844;2023-06-22T07:22:38;97868.53;;;23.15;100.00
50790;BME280;37287;47.554;7.844;2023-06-22T07:25:05;97860.69;;;23.23;100.00
50790;BME280;37287;47.554;7.844;2023-06-22T07:27:39;97845.78;;;23.39;100.00
50790;BME280;37287;47.554;7.844;2023-06-22T07:30:10;97836.22;;;23.58;100.00
50790;BME280;37287;47.554;7.844;2023-06-22T07:32:37;97842.81;;;23.61;100.00
50790;BME280;37287;47.554;7.844;2023-06-22T07:35:04;97840.63;;;23.74;100.00
50790;BME280;37287;47.554;7.844;2023-06-22T07:37:31;97826.03;;;23.74;100.00
50790;BME280;37287;47.554;7.844;2023-06-22T07:39:59;97853.84;;;23.70;100.00
50790;BME280;37287;47.554;7.844;2023-06-22T07:42:28;97843.72;;;23.67;100.00
50790;BME280;37287;47.554;7.844;2023-06-22T07:44:59;97825.16;;;23.58;100.00
50790;BME280;37287;47.554;7.844;2023-06-22T07:47:26;97827.03;;;23.52;100.00
50790;BME280;37287;47.554;7.844;2023-06-22T07:49:55;97824.72;;;23.50;100.00
50790;BME280;37287;47.554;7.844;2023-06-22T07:52:24;97818.59;;;23.46;100.00
50790;BME280;37287;47.554;7.844;2023-06-22T07:54:52;97819.66;;;23.49;100.00
50790;BME280;37287;47.554;7.844;2023-06-22T07:57:19;97815.03;;;23.55;100.00
50790;BME280;37287;47.554;7.844;2023-06-22T07:59:46;97810.44;;;23.61;100.00
50790;BME280;37287;47.554;7.844;2023-06-22T08:02:13;97817.94;;;23.61;100.00
50790;BME280;37287;47.554;7.844;2023-06-22T08:04:43;97808.09;;;23.69;100.00
50790;BME280;37287;47.554;7.844;2023-06-22T08:07:12;97800.06;;;23.80;100.00
50790;BME280;37287;47.554;7.844;2023-06-22T08:09:38;97796.75;;;24.00;100.00
50790;BME280;37287;47.554;7.844;2023-06-22T08:12:07;97788.91;;;24.08;99.06
50790;BME280;37287;47.554;7.844;2023-06-22T08:14:37;97776.78;;;24.30;99.01
50790;BME280;37287;47.554;7.844;2023-06-22T08:17:04;97772.28;;;24.57;98.22
50790;BME280;37287;47.554;7.844;2023-06-22T08:19:37;97755.44;;;24.69;95.78
50790;BME280;37287;47.554;7.844;2023-06-22T08:22:05;97756.97;;;24.70;95.56
50790;BME280;37287;47.554;7.844;2023-06-22T08:24:33;97759.19;;;24.81;95.93
50790;BME280;37287;47.554;7.844;2023-06-22T08:27:00;97756.16;;;24.94;94.44
50790;BME280;37287;47.554;7.844;2023-06-22T08:29:27;97747.16;;;24.99;94.27
50790;BME280;37287;47.554;7.844;2023-06-22T08:31:53;97718.34;;;25.06;94.57
50790;BME280;37287;47.554;7.844;2023-06-22T08:34:22;97703.72;;;25.20;93.49
50790;BME280;37287;47.554;7.844;2023-06-22T08:36:54;97701.41;;;25.49;92.18
50790;BME280;37287;47.554;7.844;2023-06-22T08:39:21;97686.53;;;25.67;89.90
50790;BME280;37287;47.554;7.844;2023-06-22T08:41:49;97690.94;;;25.73;81.87
50790;BME280;37287;47.554;7.844;2023-06-22T08:44:18;97680.25;;;25.66;84.23
50790;BME280;37287;47.554;7.844;2023-06-22T08:46:45;97675.25;;;25.91;85.37
50790;BME280;37287;47.554;7.844;2023-06-22T08:49:14;97677.78;;;26.09;84.86
50790;BME280;37287;47.554;7.844;2023-06-22T08:51:41;97672.91;;;25.84;76.86
50790;BME280;37287;47.554;7.844;2023-06-22T08:54:08;97683.59;;;25.70;78.28
50790;BME280;37287;47.554;7.844;2023-06-22T08:56:37;97686.22;;;25.80;77.29
50790;BME280;37287;47.554;7.844;2023-06-22T08:59:03;97675.75;;;25.89;82.18
50790;BME280;37287;47.554;7.844;2023-06-22T09:01:30;97674.34;;;26.00;81.20
50790;BME280;37287;47.554;7.844;2023-06-22T09:03:56;97677.59;;;26.13;79.49
50790;BME280;37287;47.554;7.844;2023-06-22T09:06:31;97680.69;;;26.00;79.38
50790;BME280;37287;47.554;7.844;2023-06-22T09:09:04;97694.34;;;26.04;78.36
50790;BME280;37287;47.554;7.844;2023-06-22T09:11:32;97691.72;;;26.15;82.18
50790;BME280;37287;47.554;7.844;2023-06-22T09:13:58;97671.31;;;26.18;82.34
50790;BME280;37287;47.554;7.844;2023-06-22T09:16:25;97663.13;;;26.30;81.55
50790;BME280;37287;47.554;7.844;2023-06-22T09:18:52;97666.88;;;26.26;82.42
50790;BME280;37287;47.554;7.844;2023-06-22T09:21:18;97672.09;;;26.19;79.09
50790;BME280;37287;47.554;7.844;2023-06-22T09:23:45;97673.41;;;26.03;80.62
50790;BME280;37287;47.554;7.844;2023-06-22T09:26:19;97658.69;;;25.97;82.17
50790;BME280;37287;47.554;7.844;2023-06-22T09:28:48;97653.13;;;25.97;83.62
50790;BME280;37287;47.554;7.844;2023-06-22T09:31:19;97644.00;;;25.90;84.57
50790;BME280;37287;47.554;7.844;2023-06-22T09:33:55;97657.00;;;25.84;82.22
50790;BME280;37287;47.554;7.844;2023-06-22T09:36:22;97675.41;;;25.82;83.63
50790;BME280;37287;47.554;7.844;2023-06-22T09:38:48;97665.00;;;25.77;82.24
50790;BME280;37287;47.554;7.844;2023-06-22T09:41:17;97631.25;;;25.99;83.71
50790;BME280;37287;47.554;7.844;2023-06-22T09:43:48;97630.47;;;26.19;82.77
50790;BME280;37287;47.554;7.844;2023-06-22T09:46:15;97659.34;;;26.27;79.93
50790;BME280;37287;47.554;7.844;2023-06-22T09:48:44;97685.63;;;26.11;78.89
50790;BME280;37287;47.554;7.844;2023-06-22T09:51:15;97654.78;;;26.03;79.96
50790;BME280;37287;47.554;7.844;2023-06-22T09:53:43;97650.47;;;26.02;82.96
50790;BME280;37287;47.554;7.844;2023-06-22T09:56:10;97658.13;;;25.92;80.31
50790;BME280;37287;47.554;7.844;2023-06-22T09:59:04;97646.97;;;25.87;83.12
50790;BME280;37287;47.554;7.844;2023-06-22T10:01:46;97646.34;;;25.77;81.92
50790;BME280;37287;47.554;7.844;2023-06-22T10:04:13;97638.50;;;25.75;84.06
50790;BME280;37287;47.554;7.844;2023-06-22T10:06:42;97646.56;;;25.73;83.56
50790;BME280;37287;47.554;7.844;2023-06-22T10:09:08;97654.88;;;25.73;84.07
50790;BME280;37287;47.554;7.844;2023-06-22T10:11:35;97652.84;;;25.74;85.07
50790;BME280;37287;47.554;7.844;2023-06-22T10:14:07;97627.41;;;25.75;84.35
50790;BME280;37287;47.554;7.844;2023-06-22T10:16:33;97639.38;;;25.82;83.49
50790;BME280;37287;47.554;7.844;2023-06-22T10:19:02;97645.16;;;25.84;84.96
50790;BME280;37287;47.554;7.844;2023-06-22T10:21:33;97630.81;;;25.85;83.76
50790;BME280;37287;47.554;7.844;2023-06-22T10:24:03;97649.75;;;25.87;84.13
50790;BME280;37287;47.554;7.844;2023-06-22T10:26:35;97670.88;;;25.84;82.46
50790;BME280;37287;47.554;7.844;2023-06-22T10:29:03;97682.38;;;25.77;81.74
50790;BME280;37287;47.554;7.844;2023-06-22T10:31:32;97691.69;;;25.74;83.96
50790;BME280;37287;47.554;7.844;2023-06-22T10:34:01;97706.22;;;25.69;83.53
50790;BME280;37287;47.554;7.844;2023-06-22T10:36:27;97706.44;;;25.65;84.35
50790;BME280;37287;47.554;7.844;2023-06-22T10:38:54;97690.56;;;25.66;85.03
50790;BME280;37287;47.554;7.844;2023-06-22T10:41:22;97667.81;;;25.62;85.10
50790;BME280;37287;47.554;7.844;2023-06-22T10:43:48;97667.47;;;25.54;85.21
50790;BME280;37287;47.554;7.844;2023-06-22T10:46:15;97692.91;;;25.37;87.08
50790;BME280;37287;47.554;7.844;2023-06-22T10:48:42;97727.19;;;25.25;88.28
50790;BME280;37287;47.554;7.844;2023-06-22T10:51:10;97742.50;;;25.20;88.65
50790;BME280;37287;47.554;7.844;2023-06-22T10:53:39;97728.38;;;25.18;88.34
50790;BME280;37287;47.554;7.844;2023-06-22T10:56:06;97741.25;;;25.21;86.94
50790;BME280;37287;47.554;7.844;2023-06-22T10:58:33;97729.69;;;25.23;87.45
50790;BME280;37287;47.554;7.844;2023-06-22T11:00:59;97752.13;;;25.25;87.99
50790;BME280;37287;47.554;7.844;2023-06-22T11:03:28;97745.25;;;25.20;87.37
50790;BME280;37287;47.554;7.844;2023-06-22T11:05:55;97742.97;;;25.19;87.88
50790;BME280;37287;47.554;7.844;2023-06-22T11:08:21;97762.56;;;25.15;85.90
50790;BME280;37287;47.554;7.844;2023-06-22T11:10:48;97757.03;;;25.15;87.81
50790;BME280;37287;47.554;7.844;2023-06-22T11:13:40;97759.50;;;25.13;87.89
50790;BME280;37287;47.554;7.844;2023-06-22T11:16:13;97768.28;;;25.12;87.88
50790;BME280;37287;47.554;7.844;2023-06-22T11:18:40;97766.97;;;25.07;88.60
50790;BME280;37287;47.554;7.844;2023-06-22T11:21:06;97764.94;;;25.08;89.47
50790;BME280;37287;47.554;7.844;2023-06-22T11:23:33;97770.38;;;25.02;89.36
50790;BME280;37287;47.554;7.844;2023-06-22T11:25:59;97762.06;;;25.02;89.28
50790;BME280;37287;47.554;7.844;2023-06-22T11:28:27;97751.97;;;24.99;89.24
50790;BME280;37287;47.554;7.844;2023-06-22T11:30:58;97745.84;;;24.95;90.84
50790;BME280;37287;47.554;7.844;2023-06-22T11:33:30;97738.75;;;24.94;91.01
50790;BME280;37287;47.554;7.844;2023-06-22T11:35:56;97751.97;;;24.99;91.37
50790;BME280;37287;47.554;7.844;2023-06-22T11:38:26;97751.31;;;25.04;91.39
50790;BME280;37287;47.554;7.844;2023-06-22T11:40:52;97745.66;;;25.13;90.57
50790;BME280;37287;47.554;7.844;2023-06-22T11:43:19;97744.31;;;25.23;90.12
50790;BME280;37287;47.554;7.844;2023-06-22T11:45:47;97752.81;;;25.35;89.44
50790;BME280;37287;47.554;7.844;2023-06-22T11:48:14;97751.50;;;25.45;89.93
50790;BME280;37287;47.554;7.844;2023-06-22T11:50:40;97748.13;;;25.56;89.03
50790;BME280;37287;47.554;7.844;2023-06-22T11:53:09;97748.19;;;25.62;87.51
50790;BME280;37287;47.554;7.844;2023-06-22T11:55:36;97753.56;;;25.65;87.46
50790;BME280;37287;47.554;7.844;2023-06-22T11:58:02;97748.59;;;25.69;87.50
50790;BME280;37287;47.554;7.844;2023-06-22T12:00:31;97747.44;;;25.76;87.37
50790;BME280;37287;47.554;7.844;2023-06-22T12:03:08;97751.53;;;25.81;87.02
50790;BME280;37287;47.554;7.844;2023-06-22T12:05:38;97751.31;;;25.84;87.33
50790;BME280;37287;47.554;7.844;2023-06-22T12:08:04;97759.69;;;25.90;87.34
50790;BME280;37287;47.554;7.844;2023-06-22T12:10:31;97774.63;;;25.92;87.38
50790;BME280;37287;47.554;7.844;2023-06-22T12:12:59;97759.13;;;26.01;87.79
50790;BME280;37287;47.554;7.844;2023-06-22T12:15:28;97757.47;;;26.09;88.01
50790;BME280;37287;47.554;7.844;2023-06-22T12:17:56;97756.09;;;26.19;86.18
50790;BME280;37287;47.554;7.844;2023-06-22T12:20:25;97762.28;;;26.29;86.52
50790;BME280;37287;47.554;7.844;2023-06-22T12:22:52;97769.19;;;26.39;85.18
50790;BME280;37287;47.554;7.844;2023-06-22T12:25:21;97768.19;;;26.37;87.06
50790;BME280;37287;47.554;7.844;2023-06-22T12:27:52;97767.22;;;26.40;88.45
50790;BME280;37287;47.554;7.844;2023-06-22T12:30:20;97751.53;;;26.37;89.40
50790;BME280;37287;47.554;7.844;2023-06-22T12:32:46;97751.00;;;26.59;88.33
50790;BME280;37287;47.554;7.844;2023-06-22T12:35:13;97728.06;;;26.58;88.60
50790;BME280;37287;47.554;7.844;2023-06-22T12:37:43;97734.34;;;26.59;88.04
50790;BME280;37287;47.554;7.844;2023-06-22T12:40:10;97727.56;;;26.60;87.70
50790;BME280;37287;47.554;7.844;2023-06-22T12:42:39;97721.66;;;26.73;87.40
50790;BME280;37287;47.554;7.844;2023-06-22T12:45:06;97717.19;;;26.81;86.76
50790;BME280;37287;47.554;7.844;2023-06-22T12:47:34;97725.69;;;26.72;87.06
50790;BME280;37287;47.554;7.844;2023-06-22T12:50:10;97727.41;;;26.69;86.53
50790;BME280;37287;47.554;7.844;2023-06-22T12:52:37;97737.97;;;26.65;86.05
50790;BME280;37287;47.554;7.844;2023-06-22T12:55:07;97741.09;;;26.73;86.75
50790;BME280;37287;47.554;7.844;2023-06-22T12:57:38;97744.53;;;26.88;86.65
50790;BME280;37287;47.554;7.844;2023-06-22T13:00:06;97736.97;;;26.89;85.41
50790;BME280;37287;47.554;7.844;2023-06-22T13:02:34;97745.13;;;26.98;84.82
50790;BME280;37287;47.554;7.844;2023-06-22T13:05:02;97745.75;;;27.08;84.01
50790;BME280;37287;47.554;7.844;2023-06-22T13:07:29;97752.38;;;27.16;83.12